createdAt,value
2019-05-22T00:00:03.397Z,100.00
2019-05-22T00:02:36.357Z,100.00
2019-05-22T00:05:14.285Z,100.00
2019-05-22T00:07:45.478Z,100.00
2019-05-22T00:10:20.206Z,100.00
2019-05-22T00:12:53.181Z,100.00
2019-05-22T00:15:24.932Z,100.00
2019-05-22T00:17:56.314Z,100.00
2019-05-22T00:20:29.550Z,100.00
2019-05-22T00:23:00.022Z,100.00
2019-05-22T00:25:33.331Z,100.00
2019-05-22T00:28:04.759Z,100.00
2019-05-22T00:30:36.396Z,100.00
2019-05-22T00:33:08.270Z,100.00
2019-05-22T00:35:38.527Z,100.00
2019-05-22T00:38:09.718Z,100.00
2019-05-22T00:40:45.376Z,100.00
2019-05-22T00:43:18.734Z,100.00
2019-05-22T00:45:50.715Z,100.00
2019-05-22T00:48:24.376Z,100.00
2019-05-22T00:51:22.191Z,100.00
2019-05-22T00:54:01.145Z,100.00
2019-05-22T00:57:03.515Z,100.00
2019-05-22T00:59:35.412Z,100.00
2019-05-22T01:02:09.687Z,100.00
2019-05-22T01:04:41.193Z,100.00
2019-05-22T01:07:18.320Z,100.00
2019-05-22T01:09:51.773Z,100.00
2019-05-22T01:12:29.909Z,100.00
2019-05-22T01:15:06.366Z,100.00
2019-05-22T01:17:38.148Z,100.00
2019-05-22T01:20:14.877Z,100.00
2019-05-22T01:22:47.515Z,100.00
2019-05-22T01:25:21.955Z,100.00
2019-05-22T01:27:52.959Z,100.00
2019-05-22T01:30:48.625Z,100.00
2019-05-22T01:33:21.719Z,100.00
2019-05-22T01:36:17.230Z,100.00
2019-05-22T01:38:50.766Z,100.00
2019-05-22T01:41:30.344Z,100.00
2019-05-22T01:44:03.364Z,100.00
2019-05-22T01:46:36.455Z,100.00
2019-05-22T01:49:10.353Z,100.00
2019-05-22T01:51:42.485Z,100.00
2019-05-22T01:54:13.486Z,100.00
2019-05-22T01:56:48.436Z,100.00
2019-05-22T01:59:19.497Z,100.00
2019-05-22T02:01:51.572Z,100.00
2019-05-22T02:04:22.218Z,100.00
2019-05-22T02:06:52.985Z,100.00
2019-05-22T02:09:31.757Z,100.00
2019-05-22T02:12:10.164Z,100.00
2019-05-22T02:14:44.203Z,100.00
2019-05-22T02:17:15.678Z,100.00
2019-05-22T02:19:45.871Z,100.00
2019-05-22T02:22:17.246Z,100.00
2019-05-22T02:24:55.363Z,100.00
2019-05-22T02:27:28.357Z,100.00
2019-05-22T02:29:59.689Z,100.00
2019-05-22T02:32:32.768Z,100.00
2019-05-22T02:35:04.987Z,100.00
2019-05-22T02:37:36.540Z,100.00
2019-05-22T02:40:13.852Z,100.00
2019-05-22T02:42:44.104Z,100.00
2019-05-22T02:45:14.519Z,100.00
2019-05-22T02:47:45.392Z,100.00
2019-05-22T02:50:20.076Z,100.00
2019-05-22T02:52:51.684Z,100.00
2019-05-22T02:55:22.091Z,100.00
2019-05-22T02:57:53.517Z,100.00
2019-05-22T03:00:25.989Z,100.00
2019-05-22T03:02:57.309Z,100.00
2019-05-22T03:05:27.337Z,100.00
2019-05-22T03:07:59.080Z,100.00
2019-05-22T03:10:31.041Z,100.00
2019-05-22T03:13:02.356Z,100.00
2019-05-22T03:15:33.475Z,100.00
2019-05-22T03:18:05.267Z,100.00
2019-05-22T03:20:35.565Z,100.00
2019-05-22T03:23:40.274Z,100.00
2019-05-22T03:26:11.376Z,100.00
2019-05-22T03:28:41.912Z,100.00
2019-05-22T03:31:12.941Z,100.00
2019-05-22T03:33:44.707Z,100.00
2019-05-22T03:36:21.219Z,100.00
2019-05-22T03:38:52.133Z,100.00
2019-05-22T03:41:22.578Z,100.00
2019-05-22T03:43:53.389Z,100.00
2019-05-22T03:46:38.242Z,100.00
2019-05-22T03:49:27.956Z,100.00
2019-05-22T03:51:46.959Z,100.00
2019-05-22T03:54:18.071Z,100.00
2019-05-22T03:56:48.510Z,100.00
2019-05-22T03:59:20.106Z,100.00
2019-05-22T04:01:51.412Z,100.00
2019-05-22T04:04:36.771Z,100.00
2019-05-22T04:07:08.564Z,100.00
2019-05-22T04:09:40.241Z,100.00
2019-05-22T04:12:11.685Z,100.00
2019-05-22T04:14:42.600Z,100.00
2019-05-22T04:17:13.277Z,100.00
2019-05-22T04:19:50.213Z,100.00
2019-05-22T04:22:18.176Z,100.00
2019-05-22T04:24:49.677Z,100.00
2019-05-22T04:27:20.435Z,100.00
2019-05-22T04:29:52.590Z,100.00
2019-05-22T04:32:37.431Z,100.00
2019-05-22T04:35:11.646Z,100.00
2019-05-22T04:37:42.177Z,100.00
2019-05-22T04:40:56.882Z,100.00
2019-05-22T04:43:31.053Z,100.00
2019-05-22T04:46:02.443Z,100.00
2019-05-22T04:48:36.504Z,100.00
2019-05-22T04:51:28.252Z,100.00
2019-05-22T04:53:59.627Z,100.00
2019-05-22T04:56:30.197Z,100.00
2019-05-22T04:59:02.048Z,100.00
2019-05-22T05:01:32.074Z,100.00
2019-05-22T05:04:02.886Z,100.00
2019-05-22T05:06:36.089Z,100.00
2019-05-22T05:09:10.536Z,100.00
2019-05-22T05:11:41.411Z,100.00
2019-05-22T05:14:12.295Z,100.00
2019-05-22T05:16:43.397Z,100.00
2019-05-22T05:19:13.738Z,100.00
2019-05-22T05:21:44.072Z,100.00
2019-05-22T05:24:15.007Z,100.00
2019-05-22T05:26:46.126Z,100.00
2019-05-22T05:29:29.060Z,100.00
2019-05-22T05:32:01.219Z,100.00
2019-05-22T05:34:47.116Z,100.00
2019-05-22T05:37:18.782Z,100.00
2019-05-22T05:40:31.577Z,100.00
2019-05-22T05:43:02.368Z,100.00
2019-05-22T05:45:33.605Z,100.00
2019-05-22T05:48:06.775Z,100.00
2019-05-22T05:50:41.272Z,100.00
2019-05-22T05:53:17.774Z,100.00
2019-05-22T05:56:13.564Z,100.00
2019-05-22T05:58:44.656Z,100.00
2019-05-22T06:01:38.881Z,100.00
2019-05-22T06:04:09.969Z,100.00
2019-05-22T06:07:22.616Z,100.00
2019-05-22T06:10:32.902Z,100.00
2019-05-22T06:13:03.636Z,100.00
2019-05-22T06:16:00.785Z,100.00
2019-05-22T06:18:36.341Z,100.00
2019-05-22T06:21:07.814Z,100.00
2019-05-22T06:24:29.865Z,100.00
2019-05-22T06:27:09.078Z,100.00
2019-05-22T06:29:55.741Z,100.00
2019-05-22T06:33:03.987Z,100.00
2019-05-22T06:35:37.524Z,100.00
2019-05-22T06:38:23.164Z,100.00
2019-05-22T06:40:55.057Z,100.00
2019-05-22T06:44:22.545Z,100.00
2019-05-22T06:46:53.213Z,100.00
2019-05-22T06:49:44.771Z,100.00
2019-05-22T06:52:16.018Z,100.00
2019-05-22T06:54:46.394Z,100.00
2019-05-22T06:57:20.962Z,100.00
2019-05-22T07:00:11.250Z,100.00
2019-05-22T07:02:23.702Z,100.00
2019-05-22T07:04:55.830Z,100.00
2019-05-22T07:07:27.544Z,100.00
2019-05-22T07:09:57.805Z,100.00
2019-05-22T07:12:29.323Z,100.00
2019-05-22T07:15:31.496Z,100.00
2019-05-22T07:18:04.932Z,100.00
2019-05-22T07:20:38.116Z,100.00
2019-05-22T07:23:15.718Z,100.00
2019-05-22T07:25:46.342Z,100.00
2019-05-22T07:28:19.432Z,100.00
2019-05-22T07:30:50.652Z,100.00
2019-05-22T07:33:22.295Z,100.00
2019-05-22T07:36:08.699Z,100.00
2019-05-22T07:38:24.801Z,100.00
2019-05-22T07:40:56.442Z,100.00
2019-05-22T07:43:27.854Z,100.00
2019-05-22T07:45:59.680Z,100.00
2019-05-22T07:48:31.504Z,100.00
2019-05-22T07:51:04.705Z,100.00
2019-05-22T07:53:35.221Z,100.00
2019-05-22T07:56:09.984Z,100.00
2019-05-22T07:58:41.810Z,100.00
2019-05-22T08:01:13.555Z,100.00
2019-05-22T08:03:45.200Z,100.00
2019-05-22T08:06:16.025Z,100.00
2019-05-22T08:08:47.270Z,100.00
2019-05-22T08:11:17.288Z,100.00
2019-05-22T08:13:47.384Z,100.00
2019-05-22T08:16:18.115Z,100.00
2019-05-22T08:18:48.337Z,100.00
2019-05-22T08:21:23.245Z,100.00
2019-05-22T08:23:52.308Z,100.00
2019-05-22T08:26:23.985Z,100.00
2019-05-22T08:28:54.537Z,100.00
2019-05-22T08:31:25.622Z,100.00
2019-05-22T08:33:56.316Z,100.00
2019-05-22T08:36:27.017Z,100.00
2019-05-22T08:38:57.475Z,100.00
2019-05-22T08:41:31.682Z,100.00
2019-05-22T08:44:16.342Z,100.00
2019-05-22T08:46:38.785Z,100.00
2019-05-22T08:49:12.610Z,100.00
2019-05-22T08:51:42.681Z,100.00
2019-05-22T08:54:14.208Z,100.00
2019-05-22T08:56:48.517Z,100.00
2019-05-22T08:59:20.358Z,100.00
2019-05-22T09:01:51.605Z,100.00
2019-05-22T09:04:21.689Z,100.00
2019-05-22T09:06:51.826Z,100.00
2019-05-22T09:09:27.968Z,100.00
2019-05-22T09:11:58.127Z,100.00
2019-05-22T09:14:28.485Z,100.00
2019-05-22T09:17:00.566Z,100.00
2019-05-22T09:19:30.760Z,100.00
2019-05-22T09:22:01.298Z,100.00
2019-05-22T09:24:31.948Z,100.00
2019-05-22T09:27:03.037Z,100.00
2019-05-22T09:29:33.370Z,100.00
2019-05-22T09:32:04.300Z,100.00
2019-05-22T09:34:34.963Z,100.00
2019-05-22T09:37:05.615Z,100.00
2019-05-22T09:39:35.702Z,100.00
2019-05-22T09:42:05.718Z,100.00
2019-05-22T09:44:36.088Z,100.00
2019-05-22T09:47:08.619Z,100.00
2019-05-22T09:49:39.732Z,100.00
2019-05-22T09:52:10.700Z,100.00
2019-05-22T09:54:42.995Z,100.00
2019-05-22T09:57:13.115Z,100.00
2019-05-22T09:59:43.108Z,100.00
2019-05-22T10:02:14.435Z,100.00
2019-05-22T10:04:44.486Z,100.00
2019-05-22T10:07:14.779Z,100.00
2019-05-22T10:09:46.148Z,100.00
2019-05-22T10:12:16.390Z,100.00
2019-05-22T10:14:46.672Z,100.00
2019-05-22T10:17:17.222Z,100.00
2019-05-22T10:19:47.218Z,100.00
2019-05-22T10:22:17.343Z,100.00
2019-05-22T10:24:50.774Z,100.00
2019-05-22T10:27:21.889Z,100.00
2019-05-22T10:29:52.518Z,100.00
2019-05-22T10:32:25.785Z,100.00
2019-05-22T10:34:57.829Z,100.00
2019-05-22T10:37:27.817Z,100.00
2019-05-22T10:39:58.679Z,100.00
2019-05-22T10:42:28.754Z,100.00
2019-05-22T10:44:59.322Z,100.00
2019-05-22T10:47:31.680Z,100.00
2019-05-22T10:50:01.774Z,100.00
2019-05-22T10:52:32.045Z,100.00
2019-05-22T10:55:02.478Z,100.00
2019-05-22T10:57:32.766Z,100.00
2019-05-22T11:00:03.225Z,100.00
2019-05-22T11:02:34.169Z,100.00
2019-05-22T11:05:04.896Z,100.00
2019-05-22T11:07:35.391Z,100.00
2019-05-22T11:10:07.271Z,100.00
2019-05-22T11:12:37.372Z,100.00
2019-05-22T11:15:09.133Z,100.00
2019-05-22T11:17:40.210Z,100.00
2019-05-22T11:20:13.246Z,100.00
2019-05-22T11:22:43.669Z,100.00
2019-05-22T11:25:15.881Z,100.00
2019-05-22T11:27:46.360Z,100.00
2019-05-22T11:30:19.418Z,100.00
2019-05-22T11:32:49.873Z,100.00
2019-05-22T11:35:20.674Z,100.00
2019-05-22T11:37:50.746Z,100.00
2019-05-22T11:40:25.375Z,100.00
2019-05-22T11:42:55.517Z,100.00
2019-05-22T11:45:27.916Z,100.00
2019-05-22T11:47:58.463Z,100.00
2019-05-22T11:50:31.394Z,100.00
2019-05-22T11:53:02.574Z,100.00
2019-05-22T11:55:43.954Z,100.00
2019-05-22T11:58:05.649Z,100.00
2019-05-22T12:00:36.724Z,100.00
2019-05-22T12:03:08.239Z,100.00
2019-05-22T12:05:38.295Z,100.00
2019-05-22T12:08:11.318Z,100.00
2019-05-22T12:10:42.014Z,100.00
2019-05-22T12:13:12.331Z,100.00
2019-05-22T12:15:42.604Z,100.00
2019-05-22T12:18:13.343Z,100.00
2019-05-22T12:20:44.471Z,100.00
2019-05-22T12:23:15.011Z,100.00
2019-05-22T12:25:45.964Z,100.00
2019-05-22T12:28:17.150Z,100.00
2019-05-22T12:30:48.140Z,100.00
2019-05-22T12:33:18.749Z,100.00
2019-05-22T12:35:50.953Z,100.00
2019-05-22T12:38:27.221Z,100.00
2019-05-22T12:41:11.204Z,100.00
2019-05-22T12:43:44.932Z,100.00
2019-05-22T12:46:15.015Z,100.00
2019-05-22T12:48:49.674Z,100.00
2019-05-22T12:51:20.727Z,100.00
2019-05-22T12:53:50.784Z,100.00
2019-05-22T12:56:21.024Z,100.00
2019-05-22T12:58:53.774Z,100.00
2019-05-22T13:01:25.836Z,100.00
2019-05-22T13:03:57.012Z,100.00
2019-05-22T13:06:27.803Z,100.00
2019-05-22T13:09:01.690Z,100.00
2019-05-22T13:11:32.078Z,100.00
2019-05-22T13:14:02.950Z,100.00
2019-05-22T13:16:34.595Z,100.00
2019-05-22T13:19:07.018Z,100.00
2019-05-22T13:21:38.767Z,100.00
2019-05-22T13:24:22.170Z,100.00
2019-05-22T13:26:52.686Z,100.00
2019-05-22T13:29:24.003Z,100.00
2019-05-22T13:31:54.751Z,100.00
2019-05-22T13:34:26.897Z,100.00
2019-05-22T13:37:02.203Z,100.00
2019-05-22T13:39:33.179Z,100.00
2019-05-22T13:42:03.733Z,100.00
2019-05-22T13:44:34.232Z,100.00
2019-05-22T13:47:06.670Z,100.00
2019-05-22T13:49:38.451Z,100.00
2019-05-22T13:52:08.890Z,100.00
2019-05-22T13:54:40.495Z,100.00
2019-05-22T13:57:11.701Z,100.00
2019-05-22T13:59:42.290Z,100.00
2019-05-22T14:02:13.171Z,100.00
2019-05-22T14:04:43.293Z,100.00
2019-05-22T14:07:14.118Z,100.00
2019-05-22T14:09:44.471Z,100.00
2019-05-22T14:12:15.040Z,100.00
2019-05-22T14:14:45.216Z,100.00
2019-05-22T14:17:17.530Z,100.00
2019-05-22T14:19:48.404Z,100.00
2019-05-22T14:22:18.537Z,100.00
2019-05-22T14:24:49.341Z,100.00
2019-05-22T14:27:20.096Z,100.00
2019-05-22T14:29:51.532Z,100.00
2019-05-22T14:32:21.845Z,100.00
2019-05-22T14:34:52.762Z,100.00
2019-05-22T14:37:23.733Z,100.00
2019-05-22T14:39:53.722Z,100.00
2019-05-22T14:42:24.314Z,100.00
2019-05-22T14:44:56.399Z,100.00
2019-05-22T14:47:27.365Z,100.00
2019-05-22T14:49:58.632Z,100.00
2019-05-22T14:52:29.450Z,100.00
2019-05-22T14:54:59.876Z,100.00
2019-05-22T14:57:31.349Z,100.00
2019-05-22T15:00:01.471Z,100.00
2019-05-22T15:02:31.740Z,100.00
2019-05-22T15:05:06.891Z,100.00
2019-05-22T15:07:39.084Z,100.00
2019-05-22T15:10:11.257Z,100.00
2019-05-22T15:12:42.637Z,100.00
2019-05-22T15:15:14.586Z,100.00
2019-05-22T15:17:45.026Z,100.00
2019-05-22T15:20:19.109Z,100.00
2019-05-22T15:22:49.987Z,92.18
2019-05-22T15:25:20.735Z,93.14
2019-05-22T15:27:51.054Z,91.63
2019-05-22T15:30:21.395Z,93.51
2019-05-22T15:32:51.796Z,99.20
2019-05-22T15:35:22.287Z,100.00
2019-05-22T15:37:53.815Z,100.00
2019-05-22T15:40:25.277Z,100.00
2019-05-22T15:42:55.510Z,100.00
2019-05-22T15:51:07.619Z,38.04
2019-05-22T15:53:39.470Z,37.52
2019-05-22T15:56:12.160Z,38.82
2019-05-22T15:58:46.113Z,39.97
2019-05-22T16:01:21.748Z,40.68
2019-05-22T16:03:51.942Z,40.90
2019-05-22T16:06:22.604Z,40.55
2019-05-22T16:09:07.667Z,41.24
2019-05-22T16:11:38.831Z,40.95
2019-05-22T16:14:13.748Z,40.87
2019-05-22T16:16:45.595Z,41.56
2019-05-22T16:19:16.089Z,41.71
2019-05-22T16:21:48.519Z,41.95
2019-05-22T16:24:19.039Z,42.21
2019-05-22T16:26:50.668Z,42.48
2019-05-22T16:29:23.563Z,42.68
2019-05-22T16:31:55.572Z,42.97
2019-05-22T16:34:28.423Z,43.14
2019-05-22T16:36:58.394Z,43.62
2019-05-22T16:39:28.910Z,43.29
2019-05-22T16:41:59.406Z,43.28
2019-05-22T16:44:29.936Z,43.38
2019-05-22T16:47:00.953Z,43.61
2019-05-22T16:49:31.955Z,43.57
2019-05-22T16:52:03.932Z,44.32
2019-05-22T16:54:35.274Z,45.82
2019-05-22T16:57:05.728Z,47.23
2019-05-22T16:59:38.381Z,47.75
2019-05-22T17:02:09.227Z,48.42
2019-05-22T17:04:40.285Z,48.51
2019-05-22T17:07:10.999Z,49.43
2019-05-22T17:09:43.074Z,50.07
2019-05-22T17:12:14.144Z,50.64
2019-05-22T17:14:46.230Z,50.59
2019-05-22T17:17:19.262Z,50.56
2019-05-22T17:19:50.314Z,50.83
2019-05-22T17:22:21.772Z,50.79
2019-05-22T17:24:52.100Z,51.05
2019-05-22T17:27:22.570Z,51.46
2019-05-22T17:29:54.069Z,51.64
2019-05-22T17:32:33.667Z,51.87
2019-05-22T17:35:05.030Z,52.09
2019-05-22T17:37:36.265Z,51.92
2019-05-22T17:40:06.866Z,51.83
2019-05-22T17:42:38.003Z,51.92
2019-05-22T17:45:09.305Z,52.58
2019-05-22T17:47:39.949Z,52.06
2019-05-22T17:50:25.397Z,52.33
2019-05-22T17:52:44.908Z,51.91
2019-05-22T17:55:16.318Z,51.04
2019-05-22T17:57:46.551Z,50.68
2019-05-22T18:00:51.711Z,49.72
2019-05-22T18:03:23.081Z,49.42
2019-05-22T18:05:53.511Z,49.55
2019-05-22T18:08:24.188Z,50.10
2019-05-22T18:10:55.471Z,50.94
2019-05-22T18:13:26.413Z,51.32
2019-05-22T18:15:58.151Z,52.27
2019-05-22T18:18:29.581Z,52.41
2019-05-22T18:21:00.858Z,53.04
2019-05-22T18:23:32.145Z,52.66
2019-05-22T18:26:02.240Z,52.63
2019-05-22T18:28:32.494Z,52.97
2019-05-22T18:31:05.806Z,53.23
2019-05-22T18:33:36.666Z,53.68
2019-05-22T18:36:07.798Z,54.06
2019-05-22T18:38:38.002Z,54.65
2019-05-22T18:41:08.044Z,55.17
2019-05-22T18:43:39.279Z,55.41
2019-05-22T18:46:10.166Z,55.36
2019-05-22T18:48:40.356Z,55.64
2019-05-22T18:51:11.626Z,55.64
2019-05-22T18:53:42.031Z,56.02
2019-05-22T18:56:12.888Z,56.33
2019-05-22T18:58:43.007Z,56.08
2019-05-22T19:01:16.355Z,56.08
2019-05-22T19:03:46.501Z,56.05
2019-05-22T19:06:29.186Z,56.19
2019-05-22T19:08:49.530Z,56.19
2019-05-22T19:11:20.283Z,56.23
2019-05-22T19:13:50.345Z,56.23
2019-05-22T19:16:20.393Z,56.81
2019-05-22T19:18:50.806Z,56.81
2019-05-22T19:21:21.440Z,56.88
2019-05-22T19:23:52.177Z,56.98
2019-05-22T19:26:22.764Z,57.48
2019-05-22T19:28:53.796Z,57.48
2019-05-22T19:31:24.622Z,58.24
2019-05-22T19:33:55.009Z,58.24
2019-05-22T19:36:25.961Z,57.91
2019-05-22T19:38:56.489Z,58.13
2019-05-22T19:41:27.922Z,58.47
2019-05-22T19:43:59.866Z,58.55
2019-05-22T19:46:32.310Z,58.63
2019-05-22T19:49:03.230Z,58.81
2019-05-22T19:51:35.040Z,58.98
2019-05-22T19:54:05.610Z,59.10
2019-05-22T19:56:35.793Z,59.52
2019-05-22T19:59:10.304Z,59.64
2019-05-22T20:01:40.918Z,59.73
2019-05-22T20:04:12.305Z,59.93
2019-05-22T20:06:43.649Z,60.18
2019-05-22T20:09:15.077Z,60.43
2019-05-22T20:11:46.112Z,60.47
2019-05-22T20:14:17.474Z,60.71
2019-05-22T20:16:48.452Z,60.85
2019-05-22T20:19:22.713Z,61.10
2019-05-22T20:21:55.028Z,61.15
2019-05-22T20:24:26.836Z,61.26
2019-05-22T20:26:57.836Z,61.53
2019-05-22T20:29:28.661Z,61.55
2019-05-22T20:31:58.951Z,61.56
2019-05-22T20:34:30.696Z,61.56
2019-05-22T20:37:03.419Z,61.43
2019-05-22T20:39:34.419Z,61.37
2019-05-22T20:42:06.350Z,61.19
2019-05-22T20:44:37.517Z,61.02
2019-05-22T20:47:10.926Z,60.44
2019-05-22T20:49:42.089Z,59.93
2019-05-22T20:52:12.924Z,59.79
2019-05-22T20:54:43.253Z,59.72
2019-05-22T20:57:20.101Z,59.53
2019-05-22T20:59:50.111Z,59.13
2019-05-22T21:02:20.767Z,59.17
2019-05-22T21:04:54.049Z,59.38
2019-05-22T21:07:30.841Z,59.46
2019-05-22T21:10:02.345Z,59.61
2019-05-22T21:12:36.085Z,59.73
2019-05-22T21:15:07.214Z,59.73
2019-05-22T21:17:38.333Z,59.83
2019-05-22T21:20:10.473Z,59.92
2019-05-22T21:22:40.730Z,60.24
2019-05-22T21:25:11.982Z,60.23
2019-05-22T21:27:44.037Z,60.29
2019-05-22T21:30:14.930Z,60.37
2019-05-22T21:32:45.244Z,60.50
2019-05-22T21:35:17.136Z,60.42
2019-05-22T21:37:48.144Z,60.62
2019-05-22T21:40:20.138Z,60.83
2019-05-22T21:42:51.184Z,61.03
2019-05-22T21:45:21.602Z,61.34
2019-05-22T21:47:52.445Z,61.63
2019-05-22T21:50:23.702Z,61.76
2019-05-22T21:52:56.646Z,61.92
2019-05-22T21:55:27.644Z,62.19
2019-05-22T21:57:58.074Z,62.47
2019-05-22T22:00:46.710Z,62.79
2019-05-22T22:03:18.946Z,63.15
2019-05-22T22:05:50.273Z,63.56
2019-05-22T22:08:20.376Z,63.83
2019-05-22T22:10:51.319Z,64.13
2019-05-22T22:13:22.866Z,64.35
2019-05-22T22:15:53.867Z,64.53
2019-05-22T22:18:26.717Z,64.65
2019-05-22T22:20:57.903Z,64.83
2019-05-22T22:23:29.834Z,65.00
2019-05-22T22:26:01.453Z,65.21
2019-05-22T22:28:31.890Z,65.44
2019-05-22T22:31:05.003Z,65.66
2019-05-22T22:33:37.504Z,65.84
2019-05-22T22:36:09.342Z,65.89
2019-05-22T22:38:40.460Z,65.88
2019-05-22T22:41:12.336Z,65.86
2019-05-22T22:43:43.099Z,65.86
2019-05-22T22:46:23.624Z,65.78
2019-05-22T22:48:55.753Z,65.82
2019-05-22T22:51:27.057Z,65.78
2019-05-22T22:53:57.962Z,65.91
2019-05-22T22:56:29.037Z,66.03
2019-05-22T22:59:00.360Z,66.16
2019-05-22T23:01:33.856Z,66.15
2019-05-22T23:04:05.349Z,66.17
2019-05-22T23:06:37.095Z,66.22
2019-05-22T23:09:10.276Z,66.15
2019-05-22T23:11:43.577Z,66.16
2019-05-22T23:14:15.300Z,66.19
2019-05-22T23:16:46.106Z,66.15
2019-05-22T23:19:47.286Z,66.14
2019-05-22T23:22:24.177Z,66.07
2019-05-22T23:24:56.694Z,65.99
2019-05-22T23:27:29.088Z,65.95
2019-05-22T23:29:59.865Z,65.92
2019-05-22T23:32:30.965Z,66.01
2019-05-22T23:35:02.031Z,66.14
2019-05-22T23:37:32.319Z,66.36
2019-05-22T23:40:02.845Z,66.62
2019-05-22T23:42:36.411Z,66.80
2019-05-22T23:45:10.440Z,66.90
2019-05-22T23:47:53.347Z,67.04
2019-05-22T23:50:24.151Z,67.11
2019-05-22T23:52:54.659Z,67.13
2019-05-22T23:55:25.051Z,67.18
2019-05-22T23:57:56.127Z,67.19
